createdAt,value
2017-10-15T00:01:22.058Z,12.97
2017-10-15T00:03:49.576Z,11.70
2017-10-15T00:06:17.879Z,11.97
2017-10-15T00:08:45.404Z,10.70
2017-10-15T00:11:12.957Z,11.37
2017-10-15T00:13:40.454Z,11.20
2017-10-15T00:16:08.017Z,12.10
2017-10-15T00:18:35.518Z,12.30
2017-10-15T00:21:03.065Z,11.50
2017-10-15T00:23:30.581Z,12.23
2017-10-15T00:25:58.083Z,10.27
2017-10-15T00:28:25.646Z,12.63
2017-10-15T00:30:53.155Z,9.63
2017-10-15T00:33:20.689Z,11.00
2017-10-15T00:35:48.213Z,12.47
2017-10-15T00:38:15.763Z,12.20
2017-10-15T00:40:43.275Z,13.20
2017-10-15T00:43:10.786Z,13.33
2017-10-15T00:45:38.322Z,12.53
2017-10-15T00:48:06.586Z,12.77
2017-10-15T00:50:34.162Z,13.37
2017-10-15T00:53:01.694Z,15.20
2017-10-15T00:55:29.230Z,13.83
2017-10-15T00:57:57.510Z,13.87
2017-10-15T01:00:25.809Z,13.30
2017-10-15T01:02:53.314Z,13.13
2017-10-15T01:05:20.852Z,13.07
2017-10-15T01:07:48.361Z,12.83
2017-10-15T01:10:15.897Z,12.50
2017-10-15T01:12:43.393Z,11.33
2017-10-15T01:15:10.958Z,12.40
2017-10-15T01:17:38.466Z,13.47
2017-10-15T01:20:05.993Z,12.60
2017-10-15T01:22:33.530Z,13.47
2017-10-15T01:25:01.053Z,12.93
2017-10-15T01:27:28.590Z,12.53
2017-10-15T01:29:56.094Z,14.47
2017-10-15T01:32:23.641Z,14.23
2017-10-15T01:34:51.150Z,15.53
2017-10-15T01:37:18.648Z,15.50
2017-10-15T01:39:46.182Z,15.90
2017-10-15T01:42:13.683Z,13.73
2017-10-15T01:44:41.225Z,14.60
2017-10-15T01:47:08.738Z,15.60
2017-10-15T01:49:36.282Z,15.93
2017-10-15T01:52:03.792Z,14.60
2017-10-15T01:54:31.333Z,15.10
2017-10-15T01:56:58.832Z,15.00
2017-10-15T01:59:27.166Z,15.80
2017-10-15T02:01:54.667Z,16.00
2017-10-15T02:04:22.174Z,16.80
2017-10-15T02:06:50.473Z,16.73
2017-10-15T02:09:18.743Z,15.93
2017-10-15T02:11:47.050Z,16.40
2017-10-15T02:14:15.321Z,17.70
2017-10-15T02:16:42.857Z,17.10
2017-10-15T02:19:10.358Z,18.20
2017-10-15T02:21:37.910Z,18.13
2017-10-15T02:24:05.417Z,18.67
2017-10-15T02:26:33.683Z,16.43
2017-10-15T02:29:01.221Z,19.40
2017-10-15T02:31:28.765Z,20.30
2017-10-15T02:33:57.057Z,17.40
2017-10-15T02:36:24.559Z,19.40
2017-10-15T02:38:52.104Z,18.73
2017-10-15T02:41:19.601Z,17.80
2017-10-15T02:43:47.137Z,16.50
2017-10-15T02:46:15.397Z,15.50
2017-10-15T02:48:42.942Z,16.27
2017-10-15T02:51:10.444Z,16.07
2017-10-15T02:53:37.945Z,13.90
2017-10-15T02:56:06.240Z,14.30
2017-10-15T02:58:33.751Z,12.93
2017-10-15T03:01:01.306Z,12.90
2017-10-15T03:03:28.810Z,11.87
2017-10-15T03:05:56.353Z,10.87
2017-10-15T03:08:23.862Z,12.90
2017-10-15T03:10:51.414Z,13.60
2017-10-15T03:13:18.924Z,11.57
2017-10-15T03:15:47.191Z,14.43
2017-10-15T03:18:14.732Z,14.30
2017-10-15T03:20:42.237Z,16.80
2017-10-15T03:23:09.771Z,16.13
2017-10-15T03:25:37.271Z,15.00
2017-10-15T03:28:04.824Z,16.20
2017-10-15T03:30:32.330Z,16.73
2017-10-15T03:33:00.736Z,17.17
2017-10-15T03:35:29.010Z,14.43
2017-10-15T03:37:56.605Z,12.70
2017-10-15T03:40:24.872Z,11.70
2017-10-15T03:42:52.403Z,10.80
2017-10-15T03:45:19.955Z,10.23
2017-10-15T03:47:47.461Z,10.00
2017-10-15T03:50:15.007Z,10.90
2017-10-15T03:52:42.510Z,12.10
2017-10-15T03:55:10.045Z,12.57
2017-10-15T03:57:37.542Z,12.00
2017-10-15T04:00:05.080Z,11.43
2017-10-15T04:02:32.579Z,11.80
2017-10-15T04:05:00.134Z,13.53
2017-10-15T04:07:27.658Z,14.97
2017-10-15T04:09:55.164Z,14.43
2017-10-15T04:12:22.700Z,19.67
2017-10-15T04:14:50.203Z,18.73
2017-10-15T04:17:18.517Z,15.20
2017-10-15T04:19:46.023Z,18.97
2017-10-15T04:22:13.557Z,24.47
2017-10-15T04:24:41.056Z,26.50
2017-10-15T04:27:08.588Z,25.77
2017-10-15T04:29:36.099Z,23.03
2017-10-15T04:32:03.646Z,24.63
2017-10-15T04:34:31.151Z,22.87
2017-10-15T04:36:58.650Z,23.50
2017-10-15T04:39:26.949Z,24.40
2017-10-15T04:41:55.214Z,24.03
2017-10-15T04:44:22.750Z,24.80
2017-10-15T04:46:50.255Z,26.30
2017-10-15T04:49:17.810Z,25.40
2017-10-15T04:51:45.318Z,21.20
2017-10-15T04:54:13.613Z,21.20
2017-10-15T04:56:41.878Z,19.70
2017-10-15T04:59:09.373Z,19.50
2017-10-15T05:01:37.674Z,18.57
2017-10-15T05:04:05.177Z,16.50
2017-10-15T05:06:32.713Z,18.13
2017-10-15T05:09:00.994Z,18.13
2017-10-15T05:11:29.459Z,17.33
2017-10-15T05:13:56.980Z,18.80
2017-10-15T05:16:24.487Z,20.00
2017-10-15T05:18:52.017Z,19.30
2017-10-15T05:21:19.509Z,20.10
2017-10-15T05:23:47.042Z,20.90
2017-10-15T05:26:15.305Z,19.23
2017-10-15T05:28:42.965Z,16.90
2017-10-15T05:31:10.474Z,17.07
2017-10-15T05:33:38.029Z,17.63
2017-10-15T05:36:05.530Z,17.40
2017-10-15T05:38:33.025Z,20.63
2017-10-15T05:41:00.566Z,22.47
2017-10-15T05:43:28.641Z,23.77
2017-10-15T05:45:57.897Z,24.40
2017-10-15T05:48:25.391Z,25.20
2017-10-15T05:50:52.914Z,23.03
2017-10-15T05:53:20.413Z,23.67
2017-10-15T05:55:47.942Z,24.70
2017-10-15T05:58:16.219Z,27.00
2017-10-15T06:00:43.770Z,23.57
2017-10-15T06:03:11.266Z,25.80
2017-10-15T06:05:38.763Z,22.20
2017-10-15T06:08:06.304Z,25.40
2017-10-15T06:10:34.594Z,27.17
2017-10-15T06:13:02.129Z,26.10
2017-10-15T06:15:29.641Z,26.17
2017-10-15T06:17:57.204Z,26.80
2017-10-15T06:20:24.730Z,23.43
2017-10-15T06:22:52.281Z,19.60
2017-10-15T06:25:19.782Z,18.77
2017-10-15T06:27:47.329Z,16.50
2017-10-15T06:30:14.830Z,18.70
2017-10-15T06:32:42.391Z,17.27
2017-10-15T06:35:09.901Z,16.33
2017-10-15T06:37:37.412Z,17.80
2017-10-15T06:40:04.975Z,13.80
2017-10-15T06:42:33.253Z,14.50
2017-10-15T06:45:00.803Z,11.13
2017-10-15T06:47:28.305Z,9.40
2017-10-15T06:49:55.830Z,9.10
2017-10-15T06:52:23.335Z,10.13
2017-10-15T06:54:50.874Z,8.90
2017-10-15T06:57:18.391Z,8.80
2017-10-15T06:59:45.942Z,8.60
2017-10-15T07:02:13.443Z,8.70
2017-10-15T07:04:41.705Z,8.33
2017-10-15T07:07:09.270Z,9.40
2017-10-15T07:09:36.777Z,8.33
2017-10-15T07:12:04.309Z,8.50
2017-10-15T07:14:31.819Z,9.40
2017-10-15T07:16:59.353Z,7.43
2017-10-15T07:19:26.877Z,7.43
2017-10-15T07:21:54.411Z,8.13
2017-10-15T07:24:21.909Z,8.80
2017-10-15T07:26:49.465Z,8.30
2017-10-15T07:29:17.742Z,8.60
2017-10-15T07:31:45.246Z,8.33
2017-10-15T07:34:12.793Z,9.23
2017-10-15T07:36:41.107Z,8.90
2017-10-15T07:39:08.646Z,8.87
2017-10-15T07:41:36.154Z,8.70
2017-10-15T07:44:03.686Z,8.13
2017-10-15T07:46:31.185Z,9.40
2017-10-15T07:48:58.722Z,8.10
2017-10-15T07:51:26.237Z,8.30
2017-10-15T07:53:53.758Z,8.37
2017-10-15T07:56:21.298Z,7.80
2017-10-15T07:58:48.829Z,7.47
2017-10-15T08:01:17.093Z,8.00
2017-10-15T08:03:44.664Z,7.10
2017-10-15T08:06:12.185Z,6.87
2017-10-15T08:08:39.754Z,6.30
2017-10-15T08:11:07.285Z,7.30
2017-10-15T08:13:34.777Z,6.63
2017-10-15T08:16:02.311Z,6.07
2017-10-15T08:18:29.817Z,6.00
2017-10-15T08:20:57.349Z,5.97
2017-10-15T08:23:24.839Z,5.70
2017-10-15T08:25:52.365Z,6.50
2017-10-15T08:28:19.865Z,5.60
2017-10-15T08:30:47.404Z,5.97
2017-10-15T08:33:14.902Z,5.63
2017-10-15T08:35:42.402Z,5.00
2017-10-15T08:38:09.966Z,5.30
2017-10-15T08:40:37.478Z,5.40
2017-10-15T08:43:05.003Z,5.50
2017-10-15T08:45:32.534Z,4.70
2017-10-15T08:48:00.062Z,4.17
2017-10-15T08:50:27.562Z,4.97
2017-10-15T08:52:55.855Z,4.57
2017-10-15T08:55:24.109Z,3.70
2017-10-15T08:57:51.625Z,4.13
2017-10-15T09:00:19.162Z,4.00
2017-10-15T09:02:46.659Z,4.57
2017-10-15T09:05:14.187Z,4.10
2017-10-15T09:07:41.682Z,3.80
2017-10-15T09:10:09.226Z,3.27
2017-10-15T09:12:36.722Z,3.20
2017-10-15T09:15:05.006Z,3.17
2017-10-15T09:17:32.536Z,3.90
2017-10-15T09:20:00.026Z,3.70
2017-10-15T09:22:27.563Z,3.30
2017-10-15T09:24:55.056Z,3.07
2017-10-15T09:27:22.605Z,3.67
2017-10-15T09:29:50.110Z,2.97
2017-10-15T09:34:51.518Z,2.90
2017-10-15T09:37:19.093Z,3.50
2017-10-15T09:39:46.613Z,3.60
2017-10-15T09:42:14.109Z,3.40
2017-10-15T09:44:41.638Z,2.93
2017-10-15T09:47:09.896Z,2.60
2017-10-15T09:49:37.524Z,2.70
2017-10-15T09:52:05.041Z,3.30
2017-10-15T09:54:32.572Z,3.13
2017-10-15T09:57:00.072Z,3.00
2017-10-15T09:59:27.598Z,2.93
2017-10-15T10:01:55.093Z,3.07
2017-10-15T10:04:22.622Z,2.40
2017-10-15T10:06:50.901Z,3.00
2017-10-15T10:09:18.461Z,3.33
2017-10-15T10:11:45.968Z,3.30
2017-10-15T10:14:14.221Z,3.17
2017-10-15T10:16:41.754Z,8.00
2017-10-15T10:19:09.256Z,11.87
2017-10-15T10:21:36.800Z,14.50
2017-10-15T10:24:04.296Z,4.60
2017-10-15T10:26:31.882Z,5.33
2017-10-15T10:28:59.387Z,12.57
2017-10-15T10:31:27.653Z,4.40
2017-10-15T10:33:55.225Z,7.73
2017-10-15T10:36:22.714Z,3.13
2017-10-15T10:38:51.024Z,3.47
2017-10-15T10:41:18.530Z,3.00
2017-10-15T10:43:46.057Z,2.83
2017-10-15T10:46:13.558Z,3.00
2017-10-15T10:48:41.105Z,3.23
2017-10-15T10:51:08.607Z,3.27
2017-10-15T10:53:36.918Z,3.17
2017-10-15T10:56:04.442Z,3.30
2017-10-15T10:58:31.938Z,3.77
2017-10-15T11:00:59.459Z,3.10
2017-10-15T11:03:26.992Z,3.73
2017-10-15T11:05:54.590Z,8.77
2017-10-15T11:08:22.092Z,4.90
2017-10-15T11:10:49.650Z,4.73
2017-10-15T11:13:17.966Z,4.07
2017-10-15T11:15:45.510Z,4.37
2017-10-15T11:18:13.029Z,3.77
2017-10-15T11:20:40.522Z,3.30
2017-10-15T11:23:08.063Z,4.20
2017-10-15T11:25:35.554Z,3.47
2017-10-15T11:28:03.082Z,4.17
2017-10-15T11:30:30.602Z,4.00
2017-10-15T11:32:58.134Z,22.87
2017-10-15T11:35:25.658Z,109.07
2017-10-15T11:37:53.209Z,8.30
2017-10-15T11:40:20.739Z,13.13
2017-10-15T11:42:48.237Z,6.70
2017-10-15T11:45:15.885Z,4.20
2017-10-15T11:47:44.146Z,15.50
2017-10-15T11:50:11.685Z,6.00
2017-10-15T11:52:39.212Z,3.67
2017-10-15T11:55:07.525Z,4.30
2017-10-15T11:57:35.032Z,4.07
2017-10-15T12:00:02.542Z,5.03
2017-10-15T12:02:30.850Z,4.10
2017-10-15T12:04:58.351Z,3.90
2017-10-15T12:07:25.899Z,5.20
2017-10-15T12:09:53.401Z,3.70
2017-10-15T12:12:20.899Z,3.50
2017-10-15T12:14:48.462Z,3.83
2017-10-15T12:17:15.970Z,3.77
2017-10-15T12:19:43.500Z,3.43
2017-10-15T12:22:11.014Z,4.27
2017-10-15T12:24:38.568Z,3.63
2017-10-15T12:27:06.076Z,3.13
2017-10-15T12:29:33.589Z,3.60
2017-10-15T12:32:01.133Z,4.10
2017-10-15T12:34:28.637Z,3.70
2017-10-15T12:36:56.196Z,3.80
2017-10-15T12:39:23.758Z,4.03
2017-10-15T12:41:51.334Z,3.53
2017-10-15T12:44:18.832Z,3.80
2017-10-15T12:46:46.338Z,3.77
2017-10-15T12:49:13.874Z,4.27
2017-10-15T12:51:41.389Z,3.80
2017-10-15T12:54:08.914Z,4.57
2017-10-15T12:56:36.423Z,4.07
2017-10-15T12:59:03.984Z,3.90
2017-10-15T13:01:32.255Z,4.27
2017-10-15T13:04:00.552Z,3.97
2017-10-15T13:06:28.857Z,4.53
2017-10-15T13:08:57.119Z,4.27
2017-10-15T13:11:25.593Z,4.63
2017-10-15T13:13:53.126Z,4.73
2017-10-15T13:16:20.676Z,4.83
2017-10-15T13:18:48.977Z,4.97
2017-10-15T13:21:16.522Z,5.10
2017-10-15T13:23:44.040Z,4.97
2017-10-15T13:26:11.550Z,5.00
2017-10-15T13:28:40.107Z,4.73
2017-10-15T13:31:07.671Z,5.50
2017-10-15T13:33:35.209Z,5.80
2017-10-15T13:36:03.477Z,4.97
2017-10-15T13:38:30.979Z,5.30
2017-10-15T13:40:59.293Z,5.40
2017-10-15T13:43:26.788Z,5.00
2017-10-15T13:45:54.318Z,5.13
2017-10-15T13:48:22.582Z,4.50
2017-10-15T13:50:50.115Z,5.77
2017-10-15T13:53:17.614Z,5.30
2017-10-15T13:55:45.241Z,5.60
2017-10-15T13:58:12.783Z,6.00
2017-10-15T14:00:41.134Z,5.93
2017-10-15T14:03:08.682Z,5.60
2017-10-15T14:05:36.191Z,4.97
2017-10-15T14:08:03.718Z,5.10
2017-10-15T14:10:31.210Z,6.43
2017-10-15T14:12:58.742Z,5.20
2017-10-15T14:15:26.255Z,4.90
2017-10-15T14:17:53.797Z,5.40
2017-10-15T14:20:22.098Z,6.13
2017-10-15T14:22:49.649Z,6.00
2017-10-15T14:25:17.907Z,5.87
2017-10-15T14:27:46.328Z,5.03
2017-10-15T14:30:13.861Z,8.77
2017-10-15T14:32:41.394Z,5.60
2017-10-15T14:35:08.918Z,6.23
2017-10-15T14:37:36.421Z,5.93
2017-10-15T14:40:04.725Z,6.00
2017-10-15T14:42:32.226Z,5.77
2017-10-15T14:44:59.763Z,6.97
2017-10-15T14:47:27.276Z,7.83
2017-10-15T14:49:54.837Z,7.00
2017-10-15T14:52:22.355Z,6.20
2017-10-15T14:54:50.631Z,5.93
2017-10-15T14:57:18.169Z,6.73
2017-10-15T14:59:45.664Z,6.20
2017-10-15T15:02:13.225Z,6.37
2017-10-15T15:04:40.720Z,6.70
2017-10-15T15:07:08.263Z,6.70
2017-10-15T15:09:35.758Z,5.97
2017-10-15T15:12:03.254Z,6.60
2017-10-15T15:14:31.541Z,6.10
2017-10-15T15:16:59.804Z,7.10
2017-10-15T15:19:27.330Z,6.70
2017-10-15T15:21:54.833Z,6.30
2017-10-15T15:24:22.385Z,6.20
2017-10-15T15:26:49.904Z,6.57
2017-10-15T15:29:17.478Z,7.03
2017-10-15T15:31:44.982Z,6.17
2017-10-15T15:34:12.492Z,6.97
2017-10-15T15:36:40.089Z,6.30
2017-10-15T15:39:07.611Z,6.60
2017-10-15T15:41:35.139Z,6.50
2017-10-15T15:44:02.656Z,6.37
2017-10-15T15:46:30.235Z,7.27
2017-10-15T15:48:57.723Z,9.30
2017-10-15T15:51:25.256Z,7.13
2017-10-15T15:53:52.787Z,7.70
2017-10-15T15:56:20.331Z,7.83
2017-10-15T15:58:47.827Z,7.03
2017-10-15T16:01:15.636Z,6.87
2017-10-15T16:03:43.843Z,6.50
2017-10-15T16:06:11.347Z,5.90
2017-10-15T16:08:38.898Z,6.93
2017-10-15T16:11:06.408Z,6.23
2017-10-15T16:13:33.964Z,7.47
2017-10-15T16:16:01.497Z,7.37
2017-10-15T16:18:29.061Z,6.77
2017-10-15T16:20:56.567Z,7.67
2017-10-15T16:23:24.128Z,7.33
2017-10-15T16:25:51.634Z,12.93
2017-10-15T16:28:19.146Z,9.57
2017-10-15T16:30:47.445Z,8.53
2017-10-15T16:33:14.936Z,7.77
2017-10-15T16:35:42.481Z,9.87
2017-10-15T16:38:09.978Z,7.63
2017-10-15T16:40:37.510Z,8.03
2017-10-15T16:43:05.774Z,7.33
2017-10-15T16:45:33.317Z,8.23
2017-10-15T16:48:00.913Z,7.73
2017-10-15T16:50:28.474Z,8.20
2017-10-15T16:52:56.159Z,9.23
2017-10-15T16:55:29.403Z,11.33
2017-10-15T16:57:57.677Z,12.57
2017-10-15T17:00:25.194Z,10.63
2017-10-15T17:02:52.753Z,11.00
2017-10-15T17:05:20.419Z,10.47
2017-10-15T17:07:47.990Z,16.57
2017-10-15T17:10:15.522Z,8.90
2017-10-15T17:12:43.061Z,10.03
2017-10-15T17:15:10.590Z,8.60
2017-10-15T17:17:38.917Z,7.13
2017-10-15T17:20:06.469Z,7.83
2017-10-15T17:22:33.981Z,8.20
2017-10-15T17:25:01.518Z,10.77
2017-10-15T17:27:29.017Z,9.93
2017-10-15T17:29:56.558Z,9.20
2017-10-15T17:32:24.058Z,9.13
2017-10-15T17:34:51.658Z,9.07
2017-10-15T17:37:19.166Z,8.43
2017-10-15T17:39:46.673Z,8.80
2017-10-15T17:42:14.206Z,9.67
2017-10-15T17:44:42.473Z,8.23
2017-10-15T17:47:10.031Z,8.90
2017-10-15T17:49:45.373Z,9.37
2017-10-15T17:52:12.914Z,9.10
2017-10-15T17:54:41.378Z,8.60
2017-10-15T17:57:09.703Z,9.73
2017-10-15T17:59:37.201Z,8.23
2017-10-15T18:02:13.527Z,10.07
2017-10-15T18:04:41.055Z,8.67
2017-10-15T18:07:08.599Z,10.37
2017-10-15T18:09:36.115Z,9.73
2017-10-15T18:12:03.675Z,10.17
2017-10-15T18:14:31.182Z,10.27
2017-10-15T18:16:59.510Z,10.60
2017-10-15T18:19:27.019Z,10.57
2017-10-15T18:21:54.525Z,10.77
2017-10-15T18:24:22.836Z,10.80
2017-10-15T18:26:50.329Z,9.90
2017-10-15T18:29:17.911Z,11.13
2017-10-15T18:31:46.320Z,10.17
2017-10-15T18:34:13.830Z,10.93
2017-10-15T18:36:41.381Z,10.83
2017-10-15T18:39:08.886Z,10.50
2017-10-15T18:41:36.441Z,10.60
2017-10-15T18:44:03.966Z,10.20
2017-10-15T18:46:31.516Z,8.97
2017-10-15T18:48:59.030Z,10.17
2017-10-15T18:51:26.582Z,11.13
2017-10-15T18:53:54.090Z,11.47
2017-10-15T18:56:21.668Z,11.10
2017-10-15T18:58:50.040Z,10.73
2017-10-15T19:01:17.550Z,11.40
2017-10-15T19:03:45.126Z,12.17
2017-10-15T19:06:12.637Z,12.40
2017-10-15T19:08:41.114Z,13.30
2017-10-15T19:11:08.627Z,13.37
2017-10-15T19:13:36.191Z,12.53
2017-10-15T19:16:03.738Z,11.60
2017-10-15T19:18:31.338Z,11.53
2017-10-15T19:20:58.885Z,11.90
2017-10-15T19:23:26.430Z,13.13
2017-10-15T19:25:53.986Z,12.00
2017-10-15T19:28:21.502Z,12.47
2017-10-15T19:30:49.062Z,12.07
2017-10-15T19:33:16.802Z,12.40
2017-10-15T19:35:44.371Z,11.57
2017-10-15T19:38:11.879Z,12.30
2017-10-15T19:40:39.399Z,11.33
2017-10-15T19:43:07.717Z,12.47
2017-10-15T19:45:35.221Z,12.20
2017-10-15T19:48:02.771Z,12.90
2017-10-15T19:50:30.285Z,12.63
2017-10-15T19:52:57.852Z,11.77
2017-10-15T19:55:25.349Z,12.37
2017-10-15T19:57:52.893Z,12.63
2017-10-15T20:00:20.402Z,12.63
2017-10-15T20:02:48.739Z,13.30
2017-10-15T20:05:16.245Z,14.10
2017-10-15T20:07:43.811Z,13.70
2017-10-15T20:10:11.311Z,13.87
2017-10-15T20:12:38.879Z,14.33
2017-10-15T20:15:07.274Z,13.50
2017-10-15T20:17:35.546Z,13.73
2017-10-15T20:20:03.858Z,12.90
2017-10-15T20:22:32.130Z,12.30
2017-10-15T20:24:59.687Z,13.23
2017-10-15T20:27:27.230Z,12.53
2017-10-15T20:29:54.786Z,13.60
2017-10-15T20:32:22.281Z,13.17
2017-10-15T20:34:49.797Z,11.87
2017-10-15T20:37:17.358Z,12.10
2017-10-15T20:39:46.113Z,11.80
2017-10-15T20:42:13.779Z,12.60
2017-10-15T20:44:41.340Z,12.27
2017-10-15T20:47:08.877Z,13.27
2017-10-15T20:49:36.374Z,12.23
2017-10-15T20:52:03.938Z,12.07
2017-10-15T20:54:31.462Z,13.10
2017-10-15T20:56:58.969Z,13.13
2017-10-15T20:59:26.853Z,13.03
2017-10-15T21:01:54.356Z,12.60
2017-10-15T21:04:21.899Z,12.90
2017-10-15T21:06:49.423Z,12.40
2017-10-15T21:09:18.035Z,13.27
2017-10-15T21:11:45.561Z,14.13
2017-10-15T21:14:13.118Z,12.97
2017-10-15T21:16:40.724Z,14.97
2017-10-15T21:19:08.443Z,13.67
2017-10-15T21:21:36.783Z,12.70
2017-10-15T21:24:04.372Z,13.53
2017-10-15T21:26:32.046Z,15.70
2017-10-15T21:28:59.582Z,13.80
2017-10-15T21:31:27.409Z,12.70
2017-10-15T21:33:55.478Z,13.83
2017-10-15T21:36:23.272Z,14.43
2017-10-15T21:38:51.020Z,13.93
2017-10-15T21:41:18.548Z,13.63
2017-10-15T21:43:46.186Z,14.90
2017-10-15T21:46:14.873Z,14.37
2017-10-15T21:48:42.466Z,16.23
2017-10-15T21:51:10.124Z,17.00
2017-10-15T21:53:37.699Z,15.63
2017-10-15T21:56:05.282Z,16.00
2017-10-15T21:58:32.841Z,17.03
2017-10-15T22:01:00.423Z,14.03
2017-10-15T22:03:27.981Z,14.90
2017-10-15T22:05:55.566Z,14.07
2017-10-15T22:08:23.065Z,14.30
2017-10-15T22:10:50.610Z,13.77
2017-10-15T22:13:18.105Z,14.17
2017-10-15T22:15:45.676Z,14.60
2017-10-15T22:18:19.212Z,16.50
2017-10-15T22:20:53.042Z,14.27
2017-10-15T22:23:20.554Z,14.47
2017-10-15T22:25:48.054Z,14.03
2017-10-15T22:28:15.598Z,14.37
2017-10-15T22:30:43.110Z,13.50
2017-10-15T22:33:10.643Z,13.97
2017-10-15T22:35:38.144Z,15.57
2017-10-15T22:38:05.710Z,13.77
2017-10-15T22:40:33.209Z,14.93
2017-10-15T22:43:01.477Z,14.93
2017-10-15T22:45:29.014Z,13.77
2017-10-15T22:47:56.522Z,16.20
2017-10-15T22:50:24.053Z,14.57
2017-10-15T22:52:51.594Z,16.10
2017-10-15T22:55:19.905Z,17.20
2017-10-15T22:57:47.423Z,15.80
2017-10-15T23:00:14.984Z,16.43
2017-10-15T23:02:42.472Z,15.23
2017-10-15T23:05:10.034Z,15.60
2017-10-15T23:07:37.547Z,16.43
2017-10-15T23:10:05.985Z,16.17
2017-10-15T23:12:33.530Z,15.70
2017-10-15T23:15:01.045Z,16.57
2017-10-15T23:17:28.586Z,15.60
2017-10-15T23:19:56.096Z,16.40
2017-10-15T23:22:23.642Z,16.57
2017-10-15T23:24:51.162Z,16.17
2017-10-15T23:27:19.467Z,20.23
2017-10-15T23:29:46.997Z,19.10
2017-10-15T23:32:14.533Z,18.87
2017-10-15T23:34:42.041Z,18.07
2017-10-15T23:37:09.578Z,18.40
2017-10-15T23:39:37.081Z,19.93
2017-10-15T23:42:05.441Z,18.07
2017-10-15T23:44:32.962Z,17.77
2017-10-15T23:47:00.458Z,16.90
2017-10-15T23:49:27.997Z,18.10
2017-10-15T23:51:55.492Z,17.87
2017-10-15T23:54:23.794Z,19.13
2017-10-15T23:56:51.297Z,19.70
2017-10-15T23:59:18.829Z,19.70
